Time;durP1;ratioP1;P1;durP2;ratioP2;P2;SDS_P1;SDS_P2;PMS_P1;PMS_P2;Temp;Humidity;BMP_temperature;BMP_pressure;BME280_temperature;BME280_humidity;BME280_pressure;Samples;Min_cycle;Max_cycle;Signal;HPM_P1;HPM_P2
2022/07/28 00:33:32;;;;;;;44.30;25.92;;;;;;;;;;4872909;29;20155;-78
2022/07/28 00:35:58;;;;;;;35.97;26.67;;;;;;;;;;4877271;29;20053;-79
2022/07/28 00:38:24;;;;;;;39.25;26.30;;;;;;;;;;4878171;29;20040;-77
2022/07/28 00:43:34;;;;;;;37.55;25.13;;;;;;;;;;4861712;29;20079;-78
2022/07/28 00:46:00;;;;;;;34.35;26.27;;;;;;;;;;4879634;29;20080;-79
2022/07/28 00:48:26;;;;;;;34.75;24.50;;;;;;;;;;4880113;29;20538;-78
2022/07/28 00:50:52;;;;;;;32.50;22.85;;;;;;;;;;4866007;29;20048;-79
2022/07/28 00:53:18;;;;;;;36.78;26.98;;;;;;;;;;4891144;29;20551;-78
2022/07/28 00:55:44;;;;;;;36.67;27.08;;;;;;;;;;4888610;29;20061;-79
2022/07/28 00:58:10;;;;;;;33.35;25.33;;;;;;;;;;4862249;29;20037;-79
2022/07/28 01:00:36;;;;;;;33.10;25.23;;;;;;;;;;4877928;29;20049;-78
2022/07/28 01:03:02;;;;;;;37.65;25.90;;;;;;;;;;4878105;29;20045;-78
2022/07/28 01:05:29;;;;;;;38.75;25.05;;;;;;;;;;4861052;29;20061;-78
2022/07/28 01:08:14;;;;;;;42.15;25.92;;;;;;;;;;4860958;29;20509;-79
2022/07/28 01:10:43;;;;;;;30.98;24.52;;;;;;;;;;4877659;29;20056;-79
2022/07/28 01:13:09;;;;;;;37.72;25.38;;;;;;;;;;4876453;29;20056;-78
2022/07/28 01:15:41;;;;;;;36.25;24.08;;;;;;;;;;4877327;29;20040;-79
2022/07/28 01:18:07;;;;;;;31.48;24.50;;;;;;;;;;4876714;29;20041;-76
2022/07/28 01:20:38;;;;;;;33.55;24.63;;;;;;;;;;4877391;29;20134;-78
2022/07/28 01:23:03;;;;;;;;;;;;;;;;;;4861554;29;20049;-78
2022/07/28 01:25:32;;;;;;;33.33;25.90;;;;;;;;;;4845433;29;19911;-78
2022/07/28 01:28:17;;;;;;;32.30;25.50;;;;;;;;;;4877791;29;20076;-77
2022/07/28 01:30:45;;;;;;;37.50;25.40;;;;;;;;;;4877287;29;20180;-78
2022/07/28 01:33:31;;;;;;;35.95;25.15;;;;;;;;;;4876330;29;20065;-78
2022/07/28 01:36:01;;;;;;;40.50;26.20;;;;;;;;;;4870657;29;20045;-77
2022/07/28 01:38:27;;;;;;;;;;;;;;;;;;4878020;29;20045;-77
2022/07/28 01:40:53;;;;;;;35.92;26.02;;;;;;;;;;4860680;29;19979;-78
2022/07/28 01:43:20;;;;;;;31.27;25.48;;;;;;;;;;4877432;29;20526;-78
2022/07/28 01:45:46;;;;;;;28.45;25.55;;;;;;;;;;4875512;29;20061;-78
2022/07/28 01:48:12;;;;;;;33.38;26.00;;;;;;;;;;4876113;29;20053;-79
2022/07/28 01:50:38;;;;;;;26.63;24.02;;;;;;;;;;4875732;29;20053;-78
2022/07/28 01:53:04;;;;;;;36.20;24.63;;;;;;;;;;4876290;29;20044;-79
2022/07/28 01:55:30;;;;;;;28.70;24.85;;;;;;;;;;4878556;29;20041;-78
2022/07/28 01:57:57;;;;;;;31.90;24.38;;;;;;;;;;4878230;29;20068;-77
2022/07/28 02:00:23;;;;;;;25.15;22.45;;;;;;;;;;4878118;29;20139;-78
2022/07/28 02:02:49;;;;;;;30.45;22.50;;;;;;;;;;4877224;29;20041;-78
2022/07/28 02:05:15;;;;;;;33.28;24.20;;;;;;;;;;4876145;29;20063;-78
2022/07/28 02:07:42;;;;;;;35.00;24.83;;;;;;;;;;4860151;29;20037;-77
2022/07/28 02:10:08;;;;;;;33.08;26.05;;;;;;;;;;4875885;29;20503;-78
2022/07/28 02:12:34;;;;;;;25.63;23.05;;;;;;;;;;4876593;29;20077;-79
2022/07/28 02:15:20;;;;;;;33.85;23.67;;;;;;;;;;4850234;29;20400;-78
2022/07/28 02:17:46;;;;;;;28.52;21.27;;;;;;;;;;4876545;29;20049;-79
2022/07/28 02:20:12;;;;;;;28.20;20.27;;;;;;;;;;4860368;29;20037;-78
2022/07/28 02:22:38;;;;;;;26.25;19.95;;;;;;;;;;4876292;29;20068;-78
2022/07/28 02:25:05;;;;;;;26.67;21.67;;;;;;;;;;4875868;29;20084;-79
2022/07/28 02:27:34;;;;;;;29.35;21.23;;;;;;;;;;4875159;29;20077;-79
2022/07/28 02:30:01;;;;;;;28.00;21.42;;;;;;;;;;4876515;29;20045;-79
2022/07/28 02:32:48;;;;;;;27.63;23.13;;;;;;;;;;4876443;29;20061;-78
2022/07/28 02:35:16;;;;;;;33.13;22.33;;;;;;;;;;4876426;29;20095;-78
2022/07/28 02:37:44;;;;;;;36.72;23.10;;;;;;;;;;4875028;29;20036;-79
2022/07/28 02:40:13;;;;;;;37.95;22.65;;;;;;;;;;4875284;29;20481;-78
2022/07/28 02:42:38;;;;;;;30.73;22.75;;;;;;;;;;4874873;29;20421;-78
2022/07/28 02:45:05;;;;;;;29.50;22.20;;;;;;;;;;4875246;29;20079;-77
2022/07/28 02:47:34;;;;;;;36.17;21.50;;;;;;;;;;4859605;29;20493;-77
2022/07/28 02:50:00;;;;;;;30.42;21.40;;;;;;;;;;4875333;29;20135;-78
2022/07/28 02:52:26;;;;;;;28.73;20.13;;;;;;;;;;4876106;29;20055;-79
2022/07/28 02:54:52;;;;;;;30.85;19.92;;;;;;;;;;4876319;29;20037;-78
2022/07/28 02:57:18;;;;;;;32.53;20.20;;;;;;;;;;4876592;29;20053;-78
2022/07/28 02:59:44;;;;;;;38.20;21.15;;;;;;;;;;4876118;29;20129;-79
2022/07/28 03:02:10;;;;;;;34.15;21.42;;;;;;;;;;4859649;29;20127;-77
2022/07/28 03:07:20;;;;;;;27.23;20.48;;;;;;;;;;4876309;29;20077;-79
2022/07/28 03:09:46;;;;;;;27.48;18.70;;;;;;;;;;4876235;29;20078;-78
2022/07/28 03:12:12;;;;;;;23.85;19.17;;;;;;;;;;4875093;29;20049;-77
2022/07/28 03:14:38;;;;;;;26.92;19.88;;;;;;;;;;4875846;29;20136;-78
2022/07/28 03:17:04;;;;;;;27.20;20.25;;;;;;;;;;4876243;29;20740;-77
2022/07/28 03:19:30;;;;;;;22.27;19.77;;;;;;;;;;4875801;29;20057;-79
2022/07/28 03:21:56;;;;;;;27.95;20.08;;;;;;;;;;4875982;29;20145;-78
2022/07/28 03:24:23;;;;;;;27.15;19.90;;;;;;;;;;4875167;29;20112;-77
2022/07/28 03:27:10;;;;;;;28.23;20.00;;;;;;;;;;4875779;29;20057;-77
2022/07/28 03:29:36;;;;;;;22.85;20.15;;;;;;;;;;4859197;29;20135;-77
2022/07/28 03:32:02;;;;;;;23.70;20.67;;;;;;;;;;4876195;29;20120;-78
2022/07/28 03:34:28;;;;;;;26.77;20.67;;;;;;;;;;4874979;29;20121;-77
2022/07/28 03:37:02;;;;;;;33.00;19.75;;;;;;;;;;4879305;29;20061;-77
2022/07/28 03:39:28;;;;;;;25.02;18.58;;;;;;;;;;4878641;29;20124;-79
2022/07/28 03:41:54;;;;;;;31.77;20.08;;;;;;;;;;4878144;29;20060;-78
2022/07/28 03:44:20;;;;;;;26.23;18.92;;;;;;;;;;4878390;29;20434;-77
2022/07/28 03:46:46;;;;;;;21.58;19.02;;;;;;;;;;4879354;29;20045;-79
2022/07/28 03:49:12;;;;;;;23.00;20.60;;;;;;;;;;4891736;29;20045;-78
2022/07/28 03:51:38;;;;;;;28.10;20.38;;;;;;;;;;4880494;29;20136;-82
2022/07/28 03:54:04;;;;;;;23.98;19.63;;;;;;;;;;4881623;29;20072;-78
2022/07/28 03:56:30;;;;;;;34.95;20.92;;;;;;;;;;4891501;29;20045;-77
2022/07/28 03:58:56;;;;;;;28.05;19.13;;;;;;;;;;4890526;29;20064;-79
2022/07/28 04:01:22;;;;;;;25.50;19.73;;;;;;;;;;4880199;29;20121;-79
2022/07/28 04:03:48;;;;;;;26.88;19.33;;;;;;;;;;4879170;29;20094;-79
2022/07/28 04:06:14;;;;;;;22.85;19.08;;;;;;;;;;4879425;29;20073;-79
2022/07/28 04:08:40;;;;;;;28.48;19.55;;;;;;;;;;4879157;29;20044;-79
2022/07/28 04:11:06;;;;;;;23.13;19.08;;;;;;;;;;4862529;29;20040;-80
2022/07/28 04:13:35;;;;;;;21.65;18.00;;;;;;;;;;4862410;29;20037;-79
2022/07/28 04:16:01;;;;;;;21.75;18.50;;;;;;;;;;4862292;29;20057;-78
2022/07/28 04:18:27;;;;;;;29.73;19.52;;;;;;;;;;4878970;29;20043;-77
2022/07/28 04:20:54;;;;;;;30.35;19.27;;;;;;;;;;4878575;29;20045;-80
2022/07/28 04:23:21;;;;;;;25.42;19.20;;;;;;;;;;4878395;29;20234;-79
2022/07/28 04:25:47;;;;;;;28.52;19.70;;;;;;;;;;4878258;29;20156;-80
2022/07/28 04:28:12;;;;;;;26.65;17.98;;;;;;;;;;4876542;29;20140;-80
2022/07/28 04:30:39;;;;;;;25.17;18.98;;;;;;;;;;4860182;29;20475;-77
2022/07/28 04:33:04;;;;;;;20.58;18.33;;;;;;;;;;4877906;29;20088;-78
2022/07/28 04:35:32;;;;;;;24.20;17.60;;;;;;;;;;4878258;29;20466;-78
2022/07/28 04:37:58;;;;;;;19.10;17.02;;;;;;;;;;4877883;29;20534;-79
2022/07/28 04:40:25;;;;;;;20.15;17.40;;;;;;;;;;4878256;29;20056;-78
2022/07/28 04:42:51;;;;;;;18.50;16.52;;;;;;;;;;4878001;29;20151;-77
2022/07/28 04:45:17;;;;;;;20.35;15.98;;;;;;;;;;4878085;29;20068;-77
2022/07/28 04:47:43;;;;;;;22.05;16.67;;;;;;;;;;4844820;29;20049;-78
2022/07/28 04:50:09;;;;;;;20.63;15.20;;;;;;;;;;4861420;29;20045;-78
2022/07/28 04:52:35;;;;;;;17.35;15.20;;;;;;;;;;4861075;29;20430;-79
2022/07/28 04:55:01;;;;;;;16.52;15.10;;;;;;;;;;4877808;29;20119;-79
2022/07/28 04:57:29;;;;;;;16.73;15.18;;;;;;;;;;4877865;29;20057;-79
2022/07/28 04:59:55;;;;;;;16.38;14.20;;;;;;;;;;4877625;29;20167;-81
2022/07/28 05:02:21;;;;;;;18.67;12.93;;;;;;;;;;4876659;29;20045;-81
2022/07/28 05:04:47;;;;;;;21.88;13.80;;;;;;;;;;4877549;29;20112;-80
2022/07/28 05:07:13;;;;;;;15.40;13.85;;;;;;;;;;4860964;29;20127;-81
2022/07/28 05:09:39;;;;;;;15.93;14.40;;;;;;;;;;4861139;29;20057;-81
2022/07/28 05:12:05;;;;;;;16.40;13.52;;;;;;;;;;4877635;29;20657;-81
2022/07/28 05:14:32;;;;;;;19.10;12.90;;;;;;;;;;4845540;29;20056;-81
2022/07/28 05:16:58;;;;;;;13.40;12.30;;;;;;;;;;4860521;29;20045;-78
2022/07/28 05:19:23;;;;;;;16.23;12.75;;;;;;;;;;4877805;29;20552;-79
2022/07/28 05:21:49;;;;;;;18.35;13.02;;;;;;;;;;4860525;29;20525;-79
2022/07/28 05:24:15;;;;;;;15.20;12.85;;;;;;;;;;4876448;29;20057;-77
2022/07/28 05:26:41;;;;;;;13.90;12.15;;;;;;;;;;4877176;29;20131;-78
2022/07/28 05:29:06;;;;;;;13.15;12.05;;;;;;;;;;4877556;29;20418;-79
2022/07/28 05:31:32;;;;;;;13.85;12.48;;;;;;;;;;4877413;29;20433;-78
2022/07/28 05:33:59;;;;;;;14.02;11.40;;;;;;;;;;4877069;29;20052;-77
2022/07/28 05:36:25;;;;;;;14.70;13.32;;;;;;;;;;4877453;29;20052;-78
2022/07/28 05:38:51;;;;;;;13.32;11.85;;;;;;;;;;4880958;29;20041;-78
2022/07/28 05:41:17;;;;;;;13.02;11.75;;;;;;;;;;4889707;29;20045;-77
2022/07/28 05:43:43;;;;;;;17.85;12.98;;;;;;;;;;4876327;29;20053;-78
2022/07/28 05:46:09;;;;;;;12.88;11.68;;;;;;;;;;4877211;29;20453;-77
2022/07/28 05:48:35;;;;;;;13.15;11.82;;;;;;;;;;4876826;29;20049;-77
2022/07/28 05:51:01;;;;;;;12.70;11.52;;;;;;;;;;4859915;29;20418;-78
2022/07/28 05:53:26;;;;;;;13.45;12.18;;;;;;;;;;4860063;29;20041;-78
2022/07/28 05:55:52;;;;;;;12.68;11.68;;;;;;;;;;4859941;29;20060;-77
2022/07/28 05:58:21;;;;;;;16.83;11.55;;;;;;;;;;4875881;29;20072;-78
2022/07/28 06:00:48;;;;;;;12.18;11.13;;;;;;;;;;4859679;29;20093;-76
2022/07/28 06:03:13;;;;;;;13.50;11.63;;;;;;;;;;4875503;29;20049;-77
2022/07/28 06:05:40;;;;;;;13.95;11.23;;;;;;;;;;4859893;29;20137;-76
2022/07/28 06:08:05;;;;;;;11.75;10.52;;;;;;;;;;4876529;29;20037;-77
2022/07/28 06:13:16;;;;;;;12.02;10.70;;;;;;;;;;4876814;29;20049;-79
2022/07/28 06:15:44;;;;;;;11.55;10.30;;;;;;;;;;4859942;29;20049;-79
2022/07/28 06:18:10;;;;;;;11.68;10.57;;;;;;;;;;4876187;29;20087;-77
2022/07/28 06:20:37;;;;;;;11.73;10.52;;;;;;;;;;4876490;29;20057;-78
2022/07/28 06:23:02;;;;;;;10.90;10.00;;;;;;;;;;4875922;29;20044;-76
2022/07/28 06:25:30;;;;;;;14.30;10.18;;;;;;;;;;4859656;29;20060;-77
2022/07/28 06:27:56;;;;;;;10.98;10.05;;;;;;;;;;4876021;29;20124;-77
2022/07/28 06:30:22;;;;;;;10.80;9.90;;;;;;;;;;4876048;29;20053;-77
2022/07/28 06:32:48;;;;;;;10.18;9.10;;;;;;;;;;4875831;29;20060;-77
2022/07/28 06:35:15;;;;;;;10.65;8.77;;;;;;;;;;4876289;29;20077;-79
2022/07/28 06:37:41;;;;;;;10.30;9.30;;;;;;;;;;4859490;29;20045;-77
2022/07/28 06:40:07;;;;;;;10.82;9.90;;;;;;;;;;4876041;29;20045;-79
2022/07/28 06:42:33;;;;;;;11.65;9.80;;;;;;;;;;4859305;29;20520;-78
2022/07/28 06:44:59;;;;;;;9.95;9.18;;;;;;;;;;4859250;29;20115;-79
2022/07/28 06:47:25;;;;;;;10.68;9.68;;;;;;;;;;4876121;29;20109;-78
2022/07/28 06:49:51;;;;;;;10.40;9.50;;;;;;;;;;4875867;29;20467;-77
2022/07/28 06:52:19;;;;;;;11.70;9.80;;;;;;;;;;4876403;29;20533;-78
2022/07/28 06:54:45;;;;;;;10.30;9.52;;;;;;;;;;4876489;29;20052;-79
2022/07/28 06:57:12;;;;;;;10.27;9.43;;;;;;;;;;4879620;29;20041;-77
2022/07/28 06:59:38;;;;;;;13.02;9.13;;;;;;;;;;4864085;29;20546;-78
2022/07/28 07:02:04;;;;;;;12.38;9.32;;;;;;;;;;4887236;29;20073;-79
2022/07/28 07:04:31;;;;;;;11.02;9.35;;;;;;;;;;4886049;29;20052;-77
2022/07/28 07:06:57;;;;;;;10.65;9.65;;;;;;;;;;4876024;29;20041;-77
2022/07/28 07:09:22;;;;;;;11.18;10.10;;;;;;;;;;4876069;29;20585;-77
2022/07/28 07:11:48;;;;;;;10.98;10.05;;;;;;;;;;4879321;29;20044;-79
2022/07/28 07:14:14;;;;;;;18.95;10.50;;;;;;;;;;4879931;29;20063;-78
2022/07/28 07:16:40;;;;;;;11.05;10.15;;;;;;;;;;4879663;29;20045;-77
2022/07/28 07:19:06;;;;;;;12.23;10.93;;;;;;;;;;4879916;29;20514;-78
2022/07/28 07:21:32;;;;;;;17.27;10.77;;;;;;;;;;4863220;29;20531;-78
2022/07/28 07:23:58;;;;;;;11.68;9.73;;;;;;;;;;4879458;29;20061;-77
2022/07/28 07:26:24;;;;;;;11.45;10.45;;;;;;;;;;4863036;29;20601;-79
2022/07/28 07:28:50;;;;;;;13.40;9.90;;;;;;;;;;4879462;29;20049;-78
2022/07/28 07:31:16;;;;;;;10.48;9.65;;;;;;;;;;4887082;29;20037;-79
2022/07/28 07:33:42;;;;;;;12.43;9.50;;;;;;;;;;4887371;29;20053;-78
2022/07/28 07:36:08;;;;;;;10.35;9.40;;;;;;;;;;4879444;29;20057;-77
2022/07/28 07:38:34;;;;;;;10.27;9.40;;;;;;;;;;4879426;29;20044;-78
2022/07/28 07:41:00;;;;;;;10.93;10.00;;;;;;;;;;4862505;29;20053;-80
2022/07/28 07:43:26;;;;;;;10.68;9.32;;;;;;;;;;4879159;29;20045;-79
2022/07/28 07:45:52;;;;;;;9.48;8.77;;;;;;;;;;4878884;29;20049;-79
2022/07/28 07:48:18;;;;;;;9.88;8.98;;;;;;;;;;4878974;29;20052;-80
2022/07/28 07:50:44;;;;;;;9.32;8.52;;;;;;;;;;4879262;29;20166;-81
2022/07/28 07:53:10;;;;;;;9.20;8.43;;;;;;;;;;4878779;29;20128;-77
2022/07/28 07:55:36;;;;;;;9.00;8.35;;;;;;;;;;4862567;29;20132;-80
2022/07/28 07:58:02;;;;;;;8.70;8.10;;;;;;;;;;4878639;29;20056;-79
2022/07/28 08:00:28;;;;;;;9.57;8.88;;;;;;;;;;4879158;29;20048;-79
2022/07/28 08:02:54;;;;;;;9.43;8.43;;;;;;;;;;4878603;29;20052;-79
2022/07/28 08:05:19;;;;;;;8.82;8.23;;;;;;;;;;4878971;29;20131;-79
2022/07/28 08:07:45;;;;;;;9.77;9.07;;;;;;;;;;4878633;29;20510;-79
2022/07/28 08:10:11;;;;;;;12.07;9.05;;;;;;;;;;4878659;29;20052;-79
2022/07/28 08:12:38;;;;;;;9.48;8.57;;;;;;;;;;4861941;29;20049;-79
2022/07/28 08:15:04;;;;;;;9.30;8.60;;;;;;;;;;4878406;29;20051;-78
2022/07/28 08:17:30;;;;;;;9.68;8.73;;;;;;;;;;4861729;29;20478;-77
2022/07/28 08:19:56;;;;;;;9.77;8.98;;;;;;;;;;4861543;29;20143;-79
2022/07/28 08:22:22;;;;;;;9.48;8.77;;;;;;;;;;4877455;29;20048;-78
2022/07/28 08:24:48;;;;;;;9.68;8.52;;;;;;;;;;4878261;29;20057;-78
2022/07/28 08:27:14;;;;;;;8.65;7.95;;;;;;;;;;4878434;29;20052;-79
2022/07/28 08:29:40;;;;;;;9.55;8.75;;;;;;;;;;4878326;29;20048;-78
2022/07/28 08:32:06;;;;;;;10.23;7.95;;;;;;;;;;4861184;29;20068;-80
2022/07/28 08:34:32;;;;;;;9.38;8.68;;;;;;;;;;4878302;29;20095;-77
2022/07/28 08:36:58;;;;;;;9.50;8.27;;;;;;;;;;4878184;29;20097;-79
2022/07/28 08:39:24;;;;;;;9.07;8.32;;;;;;;;;;4878198;29;20045;-79
2022/07/28 08:41:54;;;;;;;8.10;7.57;;;;;;;;;;4877563;29;20080;-77
2022/07/28 08:44:26;;;;;;;8.02;7.25;;;;;;;;;;4861418;29;20147;-79
2022/07/28 08:46:53;;;;;;;10.57;8.52;;;;;;;;;;4861230;29;20048;-79
2022/07/28 08:49:19;;;;;;;9.18;8.38;;;;;;;;;;4878012;29;20443;-79
2022/07/28 08:51:46;;;;;;;9.20;8.10;;;;;;;;;;4878035;29;20574;-78
2022/07/28 08:54:13;;;;;;;9.15;8.30;;;;;;;;;;4877598;29;20049;-78
2022/07/28 08:56:39;;;;;;;9.82;7.85;;;;;;;;;;4861464;29;20783;-81
2022/07/28 08:59:05;;;;;;;8.43;7.82;;;;;;;;;;4860619;29;20056;-79
2022/07/28 09:01:32;;;;;;;7.95;7.45;;;;;;;;;;4845875;29;20037;-77
2022/07/28 09:03:58;;;;;;;9.50;8.77;;;;;;;;;;4877269;29;20090;-79
2022/07/28 09:06:24;;;;;;;57.85;8.60;;;;;;;;;;4877727;29;20041;-79
2022/07/28 09:08:50;;;;;;;50.85;8.63;;;;;;;;;;4860643;29;20057;-80
2022/07/28 09:11:16;;;;;;;22.42;5.60;;;;;;;;;;4877702;29;20056;-78
2022/07/28 09:13:42;;;;;;;19.35;4.32;;;;;;;;;;4877697;29;20056;-81
2022/07/28 09:16:08;;;;;;;6.90;4.40;;;;;;;;;;4878549;29;20057;-81
2022/07/28 09:18:34;;;;;;;6.68;5.32;;;;;;;;;;4878506;29;20544;-77
2022/07/28 09:21:00;;;;;;;9.95;4.90;;;;;;;;;;4877396;29;20060;-77
2022/07/28 09:23:25;;;;;;;5.13;4.63;;;;;;;;;;4889493;29;20078;-75
2022/07/28 09:26:04;;;;;;;4.60;3.80;;;;;;;;;;4847833;29;20044;-78
2022/07/28 09:28:30;;;;;;;5.32;4.57;;;;;;;;;;4877594;29;20108;-77
2022/07/28 09:30:57;;;;;;;6.00;5.35;;;;;;;;;;4877015;29;20101;-77
2022/07/28 09:33:24;;;;;;;6.43;4.72;;;;;;;;;;4860307;29;20060;-76
2022/07/28 09:35:51;;;;;;;5.53;4.97;;;;;;;;;;4860806;29;20048;-78
2022/07/28 09:38:17;;;;;;;5.57;5.07;;;;;;;;;;4877764;29;20049;-81
2022/07/28 09:40:55;;;;;;;6.35;5.07;;;;;;;;;;4879681;29;20067;-80
2022/07/28 09:43:30;;;;;;;7.22;5.57;;;;;;;;;;4881688;29;20101;-83
2022/07/28 09:46:03;;;;;;;7.90;5.30;;;;;;;;;;4879029;29;20060;-79
2022/07/28 09:48:29;;;;;;;5.68;5.10;;;;;;;;;;4877671;29;20821;-80
2022/07/28 09:51:07;;;;;;;6.50;6.00;;;;;;;;;;4877198;29;20056;-79
2022/07/28 09:53:33;;;;;;;6.30;5.90;;;;;;;;;;4860620;29;20501;-79
2022/07/28 09:56:00;;;;;;;6.40;5.80;;;;;;;;;;4876950;29;20104;-79
2022/07/28 09:58:26;;;;;;;12.25;6.55;;;;;;;;;;4860503;29;20076;-78
2022/07/28 10:01:08;;;;;;;8.43;5.65;;;;;;;;;;4876902;29;20109;-78
2022/07/28 10:03:35;;;;;;;11.45;6.35;;;;;;;;;;4877138;29;20052;-79
2022/07/28 10:06:07;;;;;;;6.18;5.78;;;;;;;;;;4877094;29;20080;-79
2022/07/28 10:08:40;;;;;;;6.00;5.53;;;;;;;;;;4863836;29;20523;-78
2022/07/28 10:11:06;;;;;;;5.63;5.10;;;;;;;;;;4888769;29;20048;-77
2022/07/28 10:13:32;;;;;;;7.30;5.75;;;;;;;;;;4888455;29;20044;-78
2022/07/28 10:16:11;;;;;;;6.78;6.18;;;;;;;;;;4860240;29;20423;-79
2022/07/28 10:18:38;;;;;;;7.25;6.15;;;;;;;;;;4876413;29;20041;-76
2022/07/28 10:21:08;;;;;;;7.78;6.60;;;;;;;;;;4859914;29;20053;-78
2022/07/28 10:23:39;;;;;;;8.85;7.22;;;;;;;;;;4876631;29;20056;-77
2022/07/28 10:26:06;;;;;;;6.07;5.68;;;;;;;;;;4876564;29;20060;-77
2022/07/28 10:28:33;;;;;;;6.20;5.80;;;;;;;;;;4876358;29;20322;-78
2022/07/28 10:30:59;;;;;;;7.68;5.22;;;;;;;;;;4860077;29;20128;-78
2022/07/28 10:33:25;;;;;;;6.07;5.28;;;;;;;;;;4876277;29;20515;-78
2022/07/28 10:35:51;;;;;;;6.20;5.60;;;;;;;;;;4859768;29;20575;-78
2022/07/28 10:38:17;;;;;;;7.10;5.55;;;;;;;;;;4876106;29;20643;-77
2022/07/28 10:40:44;;;;;;;6.68;6.18;;;;;;;;;;4876522;29;20049;-78
2022/07/28 10:43:10;;;;;;;9.70;6.80;;;;;;;;;;4876111;29;20105;-77
2022/07/28 10:45:36;;;;;;;6.72;6.22;;;;;;;;;;4875862;29;20057;-78
2022/07/28 10:48:04;;;;;;;7.35;6.75;;;;;;;;;;4875781;29;20033;-79
2022/07/28 10:50:29;;;;;;;7.15;6.55;;;;;;;;;;4860079;29;20049;-77
2022/07/28 10:52:55;;;;;;;6.78;6.38;;;;;;;;;;4876090;29;20052;-79
2022/07/28 10:55:40;;;;;;;12.73;6.80;;;;;;;;;;4876532;29;20045;-79
2022/07/28 10:58:18;;;;;;;7.18;6.10;;;;;;;;;;4859056;29;20540;-79
2022/07/28 11:00:47;;;;;;;7.15;6.57;;;;;;;;;;4876178;29;20501;-78
2022/07/28 11:03:32;;;;;;;7.28;6.63;;;;;;;;;;4875736;29;20111;-77
2022/07/28 11:05:58;;;;;;;7.82;6.25;;;;;;;;;;4859271;29;20045;-77
2022/07/28 11:08:24;;;;;;;7.53;5.78;;;;;;;;;;4859241;29;20116;-79
2022/07/28 11:10:51;;;;;;;6.78;6.20;;;;;;;;;;4859631;29;20045;-78
2022/07/28 11:13:24;;;;;;;6.75;6.15;;;;;;;;;;4878460;29;20053;-80
2022/07/28 11:15:50;;;;;;;9.70;7.07;;;;;;;;;;4890337;29;20056;-78
2022/07/28 11:18:16;;;;;;;9.57;6.40;;;;;;;;;;4859366;29;20049;-76
2022/07/28 11:20:53;;;;;;;6.43;5.88;;;;;;;;;;4844128;29;20052;-75
2022/07/28 11:23:38;;;;;;;7.13;5.40;;;;;;;;;;4875434;29;20060;-76
2022/07/28 11:26:19;;;;;;;5.63;4.93;;;;;;;;;;4875559;29;20037;-75
2022/07/28 11:29:09;;;;;;;3.92;3.63;;;;;;;;;;4875754;29;20045;-76
2022/07/28 11:31:45;;;;;;;3.28;3.03;;;;;;;;;;4876085;29;20061;-79
2022/07/28 11:34:11;;;;;;;3.97;3.63;;;;;;;;;;4875500;29;20063;-77
2022/07/28 11:36:56;;;;;;;4.15;3.72;;;;;;;;;;4875896;29;20041;-78
2022/07/28 11:39:23;;;;;;;9.15;4.80;;;;;;;;;;4875473;29;20074;-76
2022/07/28 11:41:49;;;;;;;6.43;5.93;;;;;;;;;;4875710;29;20045;-78
2022/07/28 11:44:24;;;;;;;6.43;5.30;;;;;;;;;;4875545;29;20132;-78
2022/07/28 11:46:50;;;;;;;7.40;5.93;;;;;;;;;;4875833;29;20509;-76
2022/07/28 11:49:18;;;;;;;9.30;6.18;;;;;;;;;;4875502;29;20048;-79
2022/07/28 11:52:03;;;;;;;6.65;6.07;;;;;;;;;;4859177;29;20045;-78
2022/07/28 11:54:30;;;;;;;6.68;6.22;;;;;;;;;;4875720;29;20043;-78
2022/07/28 11:56:57;;;;;;;6.30;5.70;;;;;;;;;;4877854;29;20056;-78
2022/07/28 11:59:22;;;;;;;8.60;6.55;;;;;;;;;;4878868;29;20061;-76
2022/07/28 12:01:55;;;;;;;7.93;7.22;;;;;;;;;;4878915;29;20053;-77
2022/07/28 12:04:24;;;;;;;10.15;8.57;;;;;;;;;;4878881;29;20045;-77
2022/07/28 12:06:51;;;;;;;13.38;8.82;;;;;;;;;;4878927;29;20049;-77
2022/07/28 12:09:17;;;;;;;12.32;8.63;;;;;;;;;;4846618;29;20139;-78
2022/07/28 12:11:44;;;;;;;8.93;8.07;;;;;;;;;;4878803;29;20144;-79
2022/07/28 12:14:14;;;;;;;9.05;8.15;;;;;;;;;;4878627;29;20041;-78
2022/07/28 12:16:40;;;;;;;11.03;8.53;;;;;;;;;;4878418;29;20041;-78
2022/07/28 12:19:06;;;;;;;8.95;8.15;;;;;;;;;;4878300;29;20041;-79
2022/07/28 12:21:38;;;;;;;10.02;8.13;;;;;;;;;;4878401;29;20049;-79
2022/07/28 12:24:05;;;;;;;12.23;8.90;;;;;;;;;;4878159;29;20057;-75
2022/07/28 12:26:31;;;;;;;9.05;7.80;;;;;;;;;;4861450;29;20037;-78
2022/07/28 12:28:58;;;;;;;11.88;7.88;;;;;;;;;;4878022;29;20124;-77
2022/07/28 12:31:28;;;;;;;12.27;7.22;;;;;;;;;;4878407;29;20037;-77
2022/07/28 12:34:14;;;;;;;8.82;7.97;;;;;;;;;;4846799;29;20053;-77
2022/07/28 12:36:40;;;;;;;10.43;7.28;;;;;;;;;;4878240;29;20075;-78
2022/07/28 12:39:06;;;;;;;8.52;7.82;;;;;;;;;;4878003;29;20529;-77
2022/07/28 12:41:37;;;;;;;10.63;7.57;;;;;;;;;;4861521;29;20045;-76
2022/07/28 12:44:03;;;;;;;8.90;7.65;;;;;;;;;;4877886;29;20113;-78
2022/07/28 12:46:29;;;;;;;9.98;7.45;;;;;;;;;;4878205;29;20049;-79
2022/07/28 12:48:55;;;;;;;8.20;7.53;;;;;;;;;;4878079;29;20117;-78
2022/07/28 12:51:37;;;;;;;9.75;7.22;;;;;;;;;;4877905;29;20518;-77
2022/07/28 12:54:07;;;;;;;10.63;8.48;;;;;;;;;;4861119;29;20047;-76
2022/07/28 12:56:46;;;;;;;10.40;7.78;;;;;;;;;;4878126;29;20053;-76
2022/07/28 12:59:12;;;;;;;9.77;8.60;;;;;;;;;;4877534;29;20056;-76
2022/07/28 13:01:44;;;;;;;8.90;8.15;;;;;;;;;;4878144;29;20422;-77
2022/07/28 13:04:10;;;;;;;10.88;9.48;;;;;;;;;;4879783;29;20060;-77
2022/07/28 13:06:36;;;;;;;10.07;8.75;;;;;;;;;;4894782;29;20052;-76
2022/07/28 13:09:02;;;;;;;12.55;9.07;;;;;;;;;;4861334;29;20052;-77
2022/07/28 13:11:31;;;;;;;9.82;9.00;;;;;;;;;;4877808;29;20185;-77
2022/07/28 13:13:56;;;;;;;10.70;9.60;;;;;;;;;;4879409;29;20037;-77
2022/07/28 13:16:24;;;;;;;11.05;10.05;;;;;;;;;;4888484;29;20287;-78
2022/07/28 13:18:52;;;;;;;10.70;9.57;;;;;;;;;;4889956;29;20033;-74
2022/07/28 13:21:37;;;;;;;14.23;9.95;;;;;;;;;;4880755;29;20446;-78
2022/07/28 13:24:03;;;;;;;8.20;7.20;;;;;;;;;;4877327;29;20057;-76
2022/07/28 13:26:32;;;;;;;8.48;6.28;;;;;;;;;;4860834;29;20084;-77
2022/07/28 13:29:00;;;;;;;6.78;6.32;;;;;;;;;;4877168;29;20112;-79
2022/07/28 13:31:26;;;;;;;6.50;5.38;;;;;;;;;;4877288;29;20044;-78
2022/07/28 13:33:51;;;;;;;6.25;5.85;;;;;;;;;;4877046;29;20053;-77
2022/07/28 13:36:17;;;;;;;7.22;6.57;;;;;;;;;;4877262;29;20052;-76
2022/07/28 13:38:43;;;;;;;5.85;5.45;;;;;;;;;;4877119;29;20064;-79
2022/07/28 13:41:09;;;;;;;3.42;3.13;;;;;;;;;;4877101;29;20049;-80
2022/07/28 13:43:35;;;;;;;2.33;2.22;;;;;;;;;;4877223;29;20056;-75
2022/07/28 13:46:00;;;;;;;6.13;3.72;;;;;;;;;;4860286;29;20104;-77
2022/07/28 13:48:26;;;;;;;2.80;2.60;;;;;;;;;;4876815;29;20116;-76
2022/07/28 13:50:52;;;;;;;3.15;2.88;;;;;;;;;;4875784;29;20052;-77
2022/07/28 13:53:33;;;;;;;2.70;2.50;;;;;;;;;;4876683;29;20044;-76
2022/07/28 13:56:00;;;;;;;2.90;2.70;;;;;;;;;;4860378;29;20049;-77
2022/07/28 13:58:26;;;;;;;4.43;2.67;;;;;;;;;;4859888;29;20522;-77
2022/07/28 14:00:51;;;;;;;5.63;3.00;;;;;;;;;;4876804;29;20053;-77
2022/07/28 14:03:17;;;;;;;6.45;3.55;;;;;;;;;;4876473;29;20044;-78
2022/07/28 14:05:43;;;;;;;4.38;3.92;;;;;;;;;;4876782;29;20060;-79
2022/07/28 14:08:11;;;;;;;9.05;3.95;;;;;;;;;;4876359;29;20048;-79
2022/07/28 14:10:37;;;;;;;6.25;3.90;;;;;;;;;;4876661;29;20060;-77
2022/07/28 14:13:03;;;;;;;5.38;3.13;;;;;;;;;;4876567;29;20037;-79
2022/07/28 14:15:29;;;;;;;8.05;4.18;;;;;;;;;;4859646;29;20045;-79
2022/07/28 14:17:55;;;;;;;5.28;4.70;;;;;;;;;;4859708;29;20077;-78
2022/07/28 14:20:21;;;;;;;6.28;5.55;;;;;;;;;;4875600;29;20060;-78
2022/07/28 14:22:47;;;;;;;6.70;6.20;;;;;;;;;;4876514;29;20080;-79
2022/07/28 14:25:13;;;;;;;8.38;6.53;;;;;;;;;;4859338;29;20412;-79
2022/07/28 14:27:40;;;;;;;10.20;7.55;;;;;;;;;;4876601;29;20052;-79
2022/07/28 14:30:06;;;;;;;9.15;7.13;;;;;;;;;;4876375;29;20132;-79
2022/07/28 14:32:32;;;;;;;8.10;7.50;;;;;;;;;;4876132;29;20047;-78
2022/07/28 14:34:58;;;;;;;7.90;7.20;;;;;;;;;;4876472;29;20105;-79
2022/07/28 14:37:24;;;;;;;7.28;6.68;;;;;;;;;;4876137;29;20124;-79
2022/07/28 14:39:50;;;;;;;7.80;7.18;;;;;;;;;;4876024;29;20052;-79
2022/07/28 14:42:16;;;;;;;9.75;6.75;;;;;;;;;;4859651;29;20040;-79
2022/07/28 14:44:42;;;;;;;8.27;7.68;;;;;;;;;;4876131;29;20119;-78
2022/07/28 14:47:08;;;;;;;7.88;7.07;;;;;;;;;;4876425;29;20094;-81
2022/07/28 14:49:34;;;;;;;7.82;7.13;;;;;;;;;;4876329;29;20053;-80
2022/07/28 14:52:00;;;;;;;9.85;7.40;;;;;;;;;;4876347;29;20040;-79
2022/07/28 14:54:27;;;;;;;6.57;6.07;;;;;;;;;;4876295;29;20124;-80
2022/07/28 14:56:52;;;;;;;7.07;6.47;;;;;;;;;;4851485;29;20105;-80
2022/07/28 14:59:18;;;;;;;7.03;6.28;;;;;;;;;;4870535;29;20072;-80
2022/07/28 15:01:46;;;;;;;7.88;5.88;;;;;;;;;;4876886;29;20053;-80
2022/07/28 15:04:12;;;;;;;7.32;6.55;;;;;;;;;;4875538;29;20079;-81
2022/07/28 15:06:38;;;;;;;7.53;6.07;;;;;;;;;;4875932;29;20073;-77
2022/07/28 15:09:05;;;;;;;6.95;6.45;;;;;;;;;;4875954;29;20051;-79
2022/07/28 15:11:31;;;;;;;8.57;5.78;;;;;;;;;;4859086;29;20083;-79
2022/07/28 15:13:58;;;;;;;9.63;5.05;;;;;;;;;;4875863;29;20069;-78